Time;durP1;ratioP1;P1;durP2;ratioP2;P2;SDS_P1;SDS_P2;PMS_P1;PMS_P2;Temp;Humidity;BMP_temperature;BMP_pressure;BME280_temperature;BME280_humidity;BME280_pressure;Samples;Min_cycle;Max_cycle;Signal;HPM_P1;HPM_P2
2021/11/13 16:31:04;;;;;;;174.45;69.25;;;;;;;7.15;100.00;101230.59;5257067;22;20372;-92
2021/11/13 16:36:00;;;;;;;168.75;65.68;;;;;;;7.52;100.00;101236.16;5181063;22;20059;-90
2021/11/13 16:38:29;;;;;;;160.40;66.22;;;;;;;7.68;100.00;101231.47;5131106;22;20024;-88
2021/11/13 16:41:17;;;;;;;145.98;61.63;;;;;;;7.69;100.00;101224.31;5111360;28;20035;-91
2021/11/13 16:43:48;;;;;;;130.10;57.25;;;;;;;7.77;100.00;101228.16;5097838;28;20035;-90
2021/11/13 16:46:22;;;;;;;124.55;55.38;;;;;;;7.82;100.00;101223.34;5166744;22;20055;-90
2021/11/13 16:48:51;;;;;;;130.55;57.85;;;;;;;7.86;100.00;101228.47;5114355;22;20055;-90
2021/11/13 16:51:21;;;;;;;124.38;53.80;;;;;;;7.87;100.00;101238.25;5089703;28;20028;-90
2021/11/13 16:53:48;;;;;;;109.70;50.38;;;;;;;7.89;100.00;101234.47;5089953;28;20027;-90
2021/11/13 16:56:16;;;;;;;112.07;50.20;;;;;;;7.94;100.00;101227.00;5089576;28;20036;-90
2021/11/13 16:58:42;;;;;;;105.78;50.83;;;;;;;7.98;100.00;101228.47;5090681;28;20786;-91
2021/11/13 17:01:14;;;;;;;103.40;48.83;;;;;;;7.99;100.00;101227.53;5097541;28;20031;-90
2021/11/13 17:03:48;;;;;;;94.60;46.85;;;;;;;8.00;100.00;101239.97;5089347;28;20043;-91
2021/11/13 17:06:27;;;;;;;86.85;43.30;;;;;;;8.00;100.00;101237.28;5080786;28;20032;-91
2021/11/13 17:11:47;;;;;;;92.05;44.20;;;;;;;8.04;100.00;101244.13;5072091;23;20056;-87
2021/11/13 17:14:13;;;;;;;113.60;52.10;;;;;;;8.05;100.00;101245.00;5068658;28;20681;-88
2021/11/13 17:16:42;;;;;;;94.90;46.75;;;;;;;8.07;100.00;101253.78;5086841;28;20131;-91
2021/11/13 17:19:11;;;;;;;101.38;51.22;;;;;;;8.06;100.00;101252.06;5067332;28;20111;-91
2021/11/13 17:24:17;;;;;;;85.40;44.45;;;;;;;8.06;100.00;101265.47;5222466;22;20159;-91
2021/11/13 17:26:45;;;;;;;76.80;41.05;;;;;;;8.07;100.00;101268.00;5088797;28;20028;-91
2021/11/13 17:29:15;;;;;;;83.55;43.67;;;;;;;8.07;100.00;101268.00;5088702;28;20122;-91
2021/11/13 17:31:43;;;;;;;75.18;39.70;;;;;;;8.11;100.00;101270.47;5089954;28;20742;-91
2021/11/13 17:34:13;;;;;;;72.68;39.92;;;;;;;8.12;100.00;101270.38;5089562;28;20125;-91
2021/11/13 17:36:45;;;;;;;77.68;40.47;;;;;;;8.06;100.00;101274.34;5088780;28;20088;-91
2021/11/13 17:39:13;;;;;;;90.75;46.40;;;;;;;8.11;100.00;101278.53;5093139;28;20026;-91
2021/11/13 17:41:42;;;;;;;79.40;41.20;;;;;;;8.13;100.00;101279.28;5080227;28;20035;-91
2021/11/13 17:44:09;;;;;;;79.35;41.75;;;;;;;8.12;100.00;101289.16;5077948;28;20386;-91
2021/11/13 17:46:44;;;;;;;92.03;44.88;;;;;;;8.17;100.00;101294.16;5077286;28;20027;-91
2021/11/13 17:49:12;;;;;;;72.72;39.38;;;;;;;8.21;100.00;101301.91;5076164;28;20032;-91
2021/11/13 17:51:40;;;;;;;72.53;37.90;;;;;;;8.15;100.00;101302.31;5077512;28;20031;-91
2021/11/13 17:54:09;;;;;;;69.85;37.92;;;;;;;8.20;100.00;101310.91;5074565;28;20048;-91
2021/11/13 17:59:04;;;;;;;77.95;40.28;;;;;;;8.22;100.00;101314.31;5061532;22;20493;-91
2021/11/13 18:01:40;;;;;;;89.30;44.47;;;;;;;8.20;100.00;101310.03;5040732;28;20036;-91
2021/11/13 18:04:10;;;;;;;89.72;45.45;;;;;;;8.21;100.00;101319.81;5035202;28;20822;-90
2021/11/13 18:06:40;;;;;;;77.10;40.67;;;;;;;8.19;100.00;101319.91;5033550;28;20388;-91
2021/11/13 18:09:07;;;;;;;71.38;37.72;;;;;;;8.21;100.00;101328.69;5030019;28;20037;-91
2021/11/13 18:11:37;;;;;;;61.72;36.30;;;;;;;8.20;100.00;101335.03;5020381;28;20128;-91
2021/11/13 18:14:06;;;;;;;94.00;43.63;;;;;;;8.18;100.00;101331.59;5016418;28;20075;-91
2021/11/13 18:16:33;;;;;;;91.85;41.13;;;;;;;8.18;100.00;101342.31;5016714;28;20036;-91
2021/11/13 18:19:03;;;;;;;66.47;36.63;;;;;;;8.23;100.00;101342.84;5014926;28;20052;-91
2021/11/13 18:21:30;;;;;;;100.88;44.03;;;;;;;8.18;100.00;101339.63;5020493;28;20037;-91
2021/11/13 18:23:56;;;;;;;79.65;40.25;;;;;;;8.21;100.00;101344.78;5014671;28;20030;-91
2021/11/13 18:26:23;;;;;;;105.57;45.05;;;;;;;8.22;100.00;101346.47;5033979;28;20029;-91
2021/11/13 18:28:50;;;;;;;103.47;45.80;;;;;;;8.25;100.00;101348.09;5016772;28;20028;-90
2021/11/13 18:31:16;;;;;;;88.68;43.50;;;;;;;8.25;100.00;101346.25;5017143;28;20029;-89
2021/11/13 18:33:46;;;;;;;92.72;42.25;;;;;;;8.29;100.00;101354.94;5039259;28;20034;-92
2021/11/13 18:36:11;;;;;;;118.93;48.95;;;;;;;8.24;100.00;101359.78;2964389;23;20041;-90
2021/11/13 18:54:02;;;;;;;126.90;48.30;;;;;;;8.17;100.00;101370.06;5089908;28;20047;-91
2021/11/13 18:56:39;;;;;;;93.70;43.40;;;;;;;8.21;100.00;101362.69;5099082;28;20452;-91
2021/11/13 19:46:24;;;;;;;180.68;62.30;;;;;;;8.01;100.00;101417.59;4825198;22;20066;-92
2021/11/13 20:09:40;;;;;;;173.57;59.00;;;;;;;8.01;100.00;101455.09;6228522;22;20175;-93
2021/11/13 20:58:59;;;;;;;116.13;47.20;;;;;;;7.98;100.00;101527.63;5089177;28;20060;-92
2021/11/13 21:01:28;;;;;;;149.80;51.80;;;;;;;7.99;100.00;101521.31;5583446;23;20054;-92
2021/11/13 21:03:54;;;;;;;125.13;50.33;;;;;;;7.96;100.00;101516.16;5013720;28;20033;-93
2021/11/13 21:06:21;;;;;;;105.53;46.40;;;;;;;8.02;100.00;101516.63;5013814;28;20025;-92
2021/11/13 21:08:47;;;;;;;144.00;51.35;;;;;;;7.96;100.00;101516.16;5029672;28;20018;-92
2021/11/13 21:11:13;;;;;;;99.78;45.10;;;;;;;8.01;100.00;101517.56;5031837;28;20091;-92
2021/11/13 21:13:38;;;;;;;110.80;45.00;;;;;;;7.98;100.00;101519.56;5029463;28;20555;-92
2021/11/13 21:16:04;;;;;;;92.30;42.97;;;;;;;8.00;100.00;101523.03;5030552;28;20025;-92
2021/11/13 21:18:30;;;;;;;103.13;45.90;;;;;;;7.97;100.00;101524.09;5033577;28;20030;-92
2021/11/13 21:20:56;;;;;;;92.68;42.55;;;;;;;7.94;100.00;101523.44;5033487;28;20029;-91
2021/11/13 21:23:23;;;;;;;119.45;46.97;;;;;;;7.98;100.00;101530.28;5018443;28;20028;-91
2021/11/13 21:25:48;;;;;;;108.18;46.38;;;;;;;7.95;100.00;101536.69;5037056;28;20451;-91
2021/11/13 21:28:14;;;;;;;150.82;52.28;;;;;;;7.95;100.00;101534.03;5036834;28;20105;-91
2021/11/13 21:30:40;;;;;;;127.10;49.65;;;;;;;7.94;100.00;101534.13;5036840;28;20037;-91
2021/11/13 21:33:08;;;;;;;139.30;51.08;;;;;;;7.96;100.00;101542.94;5037040;28;20041;-90
2021/11/13 21:35:34;;;;;;;126.07;49.60;;;;;;;7.97;100.00;101547.34;5037861;28;20488;-91
2021/11/13 21:38:00;;;;;;;138.50;52.20;;;;;;;7.96;100.00;101557.19;5037430;28;20025;-91
2021/11/13 21:40:29;;;;;;;140.32;53.03;;;;;;;7.98;100.00;101559.75;5030156;28;20026;-91
2021/11/13 21:42:55;;;;;;;109.60;48.95;;;;;;;7.92;100.00;101557.47;5036841;28;20029;-91
2021/11/13 21:45:20;;;;;;;124.05;52.42;;;;;;;7.91;100.00;101561.13;5035473;28;20108;-91
2021/11/13 21:47:46;;;;;;;128.82;54.50;;;;;;;7.87;100.00;101570.31;5018996;28;20025;-91
2021/11/13 21:50:13;;;;;;;118.70;52.13;;;;;;;7.94;100.00;101568.97;5035160;28;20044;-91
2021/11/13 21:52:40;;;;;;;127.03;56.50;;;;;;;7.86;100.00;101574.78;5037237;28;20017;-91
2021/11/13 21:55:08;;;;;;;121.47;55.25;;;;;;;7.94;100.00;101577.00;5035028;28;20124;-91
2021/11/13 21:57:34;;;;;;;129.13;59.08;;;;;;;7.96;100.00;101583.13;5032024;28;20397;-91
2021/11/13 22:00:00;;;;;;;143.18;59.92;;;;;;;7.93;100.00;101583.31;5033999;28;20083;-91
2021/11/13 22:02:29;;;;;;;123.00;57.05;;;;;;;7.98;100.00;101578.50;5015993;28;20099;-91
2021/11/13 22:04:56;;;;;;;132.18;58.28;;;;;;;7.96;100.00;101583.97;5015698;28;20025;-90
2021/11/13 22:07:21;;;;;;;112.45;54.90;;;;;;;8.02;100.00;101593.44;5031860;28;20193;-91
2021/11/13 22:09:47;;;;;;;152.05;61.72;;;;;;;7.97;100.00;101583.00;5033707;28;20029;-91
2021/11/13 22:12:14;;;;;;;122.22;54.75;;;;;;;7.95;100.00;101590.28;5033822;28;20033;-92
2021/11/13 22:14:39;;;;;;;116.70;55.63;;;;;;;7.94;100.00;101595.75;5033477;28;20111;-92
2021/11/13 22:17:05;;;;;;;125.10;56.70;;;;;;;7.98;100.00;101597.25;5037311;28;20033;-92
2021/11/13 22:19:30;;;;;;;159.98;61.80;;;;;;;8.00;100.00;101593.53;5037330;28;20045;-92
2021/11/13 22:21:56;;;;;;;132.57;58.60;;;;;;;7.99;100.00;101594.50;5036853;28;20038;-91
2021/11/13 22:24:21;;;;;;;136.05;60.35;;;;;;;7.97;100.00;101603.59;5033485;28;20035;-91
2021/11/13 22:26:47;;;;;;;133.13;59.97;;;;;;;7.97;100.00;101596.41;5034002;28;20033;-91
2021/11/13 22:29:12;;;;;;;145.40;63.08;;;;;;;7.97;100.00;101606.25;5033820;28;20083;-91
2021/11/13 22:31:39;;;;;;;142.18;64.88;;;;;;;7.95;100.00;101597.44;5033041;28;20034;-92
2021/11/13 22:34:05;;;;;;;137.60;61.00;;;;;;;7.96;100.00;101600.03;5016445;28;20091;-91
2021/11/13 22:36:30;;;;;;;136.27;61.78;;;;;;;7.96;100.00;101607.22;5035545;28;20033;-91
2021/11/13 22:38:56;;;;;;;135.07;60.92;;;;;;;7.99;100.00;101610.56;5033643;28;20031;-91
2021/11/13 22:41:21;;;;;;;133.80;62.55;;;;;;;8.03;100.00;101605.88;5033253;28;20036;-91
2021/11/13 22:43:47;;;;;;;152.80;64.47;;;;;;;7.93;100.00;101612.78;5032970;28;20823;-91
2021/11/13 22:46:13;;;;;;;139.48;62.50;;;;;;;7.96;100.00;101609.91;5035753;28;20033;-91
2021/11/13 22:48:39;;;;;;;151.13;64.55;;;;;;;7.95;100.00;101616.19;5033860;28;20040;-91
2021/11/13 22:51:05;;;;;;;126.38;60.30;;;;;;;7.94;100.00;101623.38;5033457;28;20025;-91
2021/11/13 22:53:34;;;;;;;126.88;59.63;;;;;;;7.87;100.00;101616.69;5032411;28;20029;-91
2021/11/13 22:55:59;;;;;;;125.93;60.10;;;;;;;7.93;100.00;101612.78;5014787;28;20025;-91
2021/11/13 22:58:25;;;;;;;118.95;59.92;;;;;;;7.93;100.00;101615.47;5031355;28;20503;-91
2021/11/13 23:00:52;;;;;;;138.60;63.33;;;;;;;7.92;100.00;101611.91;5030955;28;20083;-90
2021/11/13 23:03:21;;;;;;;133.90;61.90;;;;;;;7.91;100.00;101614.69;5015306;28;20175;-90
2021/11/13 23:05:50;;;;;;;135.55;63.00;;;;;;;7.94;100.00;101619.84;5033141;28;20026;-91
2021/11/13 23:08:16;;;;;;;114.28;58.53;;;;;;;7.97;100.00;101625.00;5031791;28;20021;-90
2021/11/13 23:10:42;;;;;;;136.02;62.50;;;;;;;7.93;100.00;101624.34;5015802;28;20091;-91
2021/11/13 23:13:07;;;;;;;117.53;59.60;;;;;;;7.94;100.00;101639.44;5023651;28;20144;-92
2021/11/13 23:15:35;;;;;;;110.18;57.13;;;;;;;7.93;100.00;101635.06;5017369;28;20087;-92
2021/11/13 23:18:00;;;;;;;111.53;56.45;;;;;;;7.92;100.00;101635.13;5034695;28;20060;-91
2021/11/13 23:20:27;;;;;;;114.57;57.47;;;;;;;7.93;100.00;101636.88;5033801;28;20465;-92
2021/11/13 23:22:53;;;;;;;111.35;56.20;;;;;;;7.89;100.00;101641.53;5017905;28;20025;-91
2021/11/13 23:25:19;;;;;;;117.72;59.58;;;;;;;7.91;100.00;101644.16;5036403;28;20033;-91
2021/11/13 23:27:48;;;;;;;117.45;59.65;;;;;;;7.93;100.00;101651.13;5019846;28;20045;-91
2021/11/13 23:30:17;;;;;;;110.18;55.72;;;;;;;7.95;100.00;101646.53;5033778;28;20400;-91
2021/11/13 23:32:43;;;;;;;121.40;59.15;;;;;;;7.96;100.00;101650.94;5034477;28;20512;-91
2021/11/13 23:35:12;;;;;;;107.97;56.60;;;;;;;7.90;100.00;101650.47;5040983;28;20073;-91
2021/11/13 23:37:37;;;;;;;110.40;57.13;;;;;;;7.92;100.00;101659.25;5016762;28;20127;-91
2021/11/13 23:40:05;;;;;;;101.68;55.42;;;;;;;7.94;100.00;101652.00;5016261;28;20069;-91
2021/11/13 23:42:32;;;;;;;118.18;58.22;;;;;;;7.90;100.00;101653.16;5034404;28;20391;-91
2021/11/13 23:44:58;;;;;;;111.03;58.03;;;;;;;7.89;100.00;101651.41;5016599;28;20025;-91
2021/11/13 23:47:24;;;;;;;115.25;60.85;;;;;;;7.89;100.00;101651.41;5016904;28;20028;-90
2021/11/13 23:49:50;;;;;;;103.28;57.42;;;;;;;7.93;100.00;101658.31;5020957;28;20025;-90
2021/11/13 23:52:15;;;;;;;105.05;55.92;;;;;;;7.93;100.00;101667.19;5034721;28;20049;-90
2021/11/13 23:54:40;;;;;;;118.93;59.95;;;;;;;7.90;100.00;101671.91;5034362;28;20026;-91
2021/11/13 23:57:06;;;;;;;128.77;60.17;;;;;;;7.84;100.00;101667.78;5042319;28;20040;-91
2021/11/13 23:59:31;;;;;;;113.32;58.63;;;;;;;7.92;100.00;101668.13;5020854;28;20030;-91
